createdAt,value
2023-01-21T00:01:20.392Z,444.51
2023-01-21T00:06:20.339Z,448.35
2023-01-21T00:11:20.245Z,449.85
2023-01-21T00:16:20.188Z,445.39
2023-01-21T00:21:20.144Z,446.28
2023-01-21T00:26:20.040Z,450.15
2023-01-21T00:31:20.064Z,456.55
2023-01-21T00:36:19.921Z,460.92
2023-01-21T00:41:19.887Z,462.18
2023-01-21T00:46:19.850Z,465.37
2023-01-21T00:51:19.850Z,469.26
2023-01-21T00:56:19.683Z,473.88
2023-01-21T01:01:19.658Z,471.56
2023-01-21T01:06:34.211Z,466.66
2023-01-21T01:11:26.624Z,471.56
2023-01-21T01:16:26.568Z,471.56
2023-01-21T01:21:26.496Z,474.88
2023-01-21T01:26:26.435Z,471.89
2023-01-21T01:31:26.398Z,467.96
2023-01-21T01:36:26.298Z,466.02
2023-01-21T01:41:26.253Z,461.87
2023-01-21T01:46:26.204Z,463.14
2023-01-21T01:51:26.141Z,462.82
2023-01-21T01:56:26.047Z,460.29
2023-01-21T02:01:26.007Z,454.70
2023-01-21T02:06:25.924Z,458.72
2023-01-21T02:11:25.875Z,458.72
2023-01-21T02:16:25.835Z,455.32
2023-01-21T02:21:25.732Z,451.36
2023-01-21T02:26:25.664Z,446.57
2023-01-21T02:31:25.671Z,443.05
2023-01-21T02:36:25.532Z,438.16
2023-01-21T02:41:25.483Z,433.65
2023-01-21T02:46:25.433Z,430.88
2023-01-21T02:51:25.365Z,429.51
2023-01-21T02:56:25.288Z,434.77
2023-01-21T03:01:25.243Z,441.89
2023-01-21T03:06:25.158Z,447.76
2023-01-21T03:11:25.104Z,454.70
2023-01-21T03:16:25.059Z,462.18
2023-01-21T03:21:24.986Z,465.05
2023-01-21T03:26:24.912Z,460.60
2023-01-21T03:31:24.869Z,455.93
2023-01-21T03:36:24.775Z,454.70
2023-01-21T03:41:24.722Z,453.17
2023-01-21T03:46:24.661Z,452.57
2023-01-21T03:51:24.607Z,458.10
2023-01-21T03:56:24.520Z,458.72
2023-01-21T04:01:24.467Z,451.96
2023-01-21T04:06:24.397Z,448.06
2023-01-21T04:11:24.327Z,447.76
2023-01-21T04:16:24.319Z,445.10
2023-01-21T04:21:24.213Z,444.22
2023-01-21T04:26:24.119Z,441.02
2023-01-21T04:31:24.122Z,440.73
2023-01-21T04:36:24.073Z,437.87
2023-01-21T04:41:25.472Z,437.02
2023-01-21T04:46:23.876Z,437.59
2023-01-21T04:51:23.854Z,435.05
2023-01-21T04:56:23.755Z,434.21
2023-01-21T05:01:23.776Z,434.49
2023-01-21T05:06:23.632Z,434.77
2023-01-21T05:11:23.592Z,433.37
2023-01-21T05:16:55.932Z,433.09
2023-01-21T05:21:48.306Z,433.37
2023-01-21T05:26:48.319Z,433.93
2023-01-21T05:31:48.164Z,435.33
2023-01-21T05:36:48.125Z,436.74
2023-01-21T05:41:48.044Z,438.73
2023-01-21T05:46:48.001Z,437.59
2023-01-21T05:51:47.923Z,439.01
2023-01-21T05:56:47.904Z,440.45
2023-01-21T06:01:47.779Z,441.60
2023-01-21T06:06:47.762Z,441.60
2023-01-21T06:11:47.662Z,442.76
2023-01-21T06:16:47.600Z,443.34
2023-01-21T06:21:47.554Z,446.28
2023-01-21T06:26:47.497Z,446.57
2023-01-21T06:31:47.607Z,451.36
2023-01-21T06:36:47.389Z,450.15
2023-01-21T06:41:47.325Z,455.01
2023-01-21T06:47:00.209Z,456.86
2023-01-21T06:51:48.173Z,457.48
2023-01-21T06:56:47.114Z,461.23
2023-01-21T07:01:47.106Z,458.41
2023-01-21T07:06:46.980Z,460.92
2023-01-21T07:11:46.978Z,459.98
2023-01-21T07:16:46.870Z,464.73
2023-01-21T07:21:46.768Z,463.45
2023-01-21T07:26:46.751Z,464.09
2023-01-21T07:31:46.768Z,465.69
2023-01-21T07:36:46.604Z,466.66
2023-01-21T07:41:46.548Z,465.05
2023-01-21T07:46:46.559Z,467.31
2023-01-21T07:51:46.417Z,468.28
2023-01-21T07:56:46.371Z,465.69
2023-01-21T08:01:46.380Z,467.96
2023-01-21T08:06:46.270Z,461.23
2023-01-21T08:11:46.167Z,459.04
2023-01-21T08:16:46.117Z,454.70
2023-01-21T08:21:46.029Z,451.96
2023-01-21T08:26:45.985Z,451.96
2023-01-21T08:31:45.949Z,447.17
2023-01-21T08:36:45.846Z,443.05
2023-01-21T08:41:45.785Z,440.73
2023-01-21T08:46:45.742Z,438.44
2023-01-21T08:51:45.675Z,435.33
2023-01-21T08:56:45.624Z,433.65
2023-01-21T09:01:45.561Z,433.09
2023-01-21T09:06:45.495Z,424.37
2023-01-21T09:11:45.438Z,420.93
2023-01-21T09:16:45.376Z,417.02
2023-01-21T09:21:45.356Z,409.92
2023-01-21T09:26:45.284Z,408.93
2023-01-21T09:31:45.203Z,403.79
2023-01-21T09:36:45.126Z,404.27
2023-01-21T09:41:45.008Z,406.46
2023-01-21T09:46:44.974Z,402.10
2023-01-21T09:51:44.886Z,397.83
2023-01-21T09:56:44.850Z,394.80
2023-01-21T10:01:44.790Z,392.05
2023-01-21T10:06:44.735Z,393.19
2023-01-21T10:11:46.184Z,397.83
2023-01-21T10:16:44.680Z,398.77
2023-01-21T10:21:44.509Z,401.14
2023-01-21T10:26:44.484Z,399.24
2023-01-21T10:31:44.504Z,399.24
2023-01-21T10:36:44.347Z,398.30
2023-01-21T10:41:44.316Z,392.28
2023-01-21T10:46:44.196Z,402.82
2023-01-21T10:51:44.129Z,417.28
2023-01-21T10:56:44.142Z,427.33
2023-01-21T11:01:43.996Z,428.14
2023-01-21T11:06:44.005Z,434.77
2023-01-21T11:11:44.253Z,435.05
2023-01-21T11:16:43.803Z,434.21
2023-01-21T11:21:43.738Z,433.09
2023-01-21T11:26:43.751Z,434.21
2023-01-21T11:31:43.704Z,438.16
2023-01-21T11:36:43.566Z,432.81
2023-01-21T11:41:43.497Z,426.52
2023-01-21T11:46:43.429Z,435.05
2023-01-21T11:51:43.399Z,432.26
2023-01-21T11:56:43.330Z,441.60
2023-01-21T12:01:43.223Z,432.54
2023-01-21T12:06:43.159Z,434.21
2023-01-21T12:11:43.101Z,434.77
2023-01-21T12:16:43.051Z,446.57
2023-01-21T12:21:43.001Z,453.17
2023-01-21T12:26:42.916Z,446.28
2023-01-21T12:31:43.001Z,445.69
2023-01-21T12:36:42.794Z,445.98
2023-01-21T12:41:42.711Z,446.28
2023-01-21T12:46:42.713Z,451.36
2023-01-21T12:51:42.598Z,452.26
2023-01-21T12:56:42.561Z,457.48
2023-01-21T13:01:42.513Z,464.73
2023-01-21T13:06:53.532Z,459.04
2023-01-21T13:11:43.336Z,459.04
2023-01-21T13:16:42.310Z,451.96
2023-01-21T13:21:42.177Z,444.80
2023-01-21T13:26:42.135Z,443.05
2023-01-21T13:31:42.157Z,447.76
2023-01-21T13:36:42.057Z,446.57
2023-01-21T13:41:41.940Z,441.89
2023-01-21T13:46:41.919Z,438.73
2023-01-21T13:51:41.834Z,433.93
2023-01-21T13:56:41.759Z,435.33
2023-01-21T14:01:41.684Z,436.74
2023-01-21T14:06:41.638Z,437.87
2023-01-21T14:11:41.522Z,442.18
2023-01-21T14:16:41.541Z,444.51
2023-01-21T14:21:41.423Z,443.34
2023-01-21T14:26:41.406Z,442.18
2023-01-21T14:31:41.365Z,443.34
2023-01-21T14:36:41.269Z,441.60
2023-01-21T14:41:41.186Z,435.89
2023-01-21T14:46:41.136Z,433.65
2023-01-21T14:51:41.034Z,433.09
2023-01-21T14:56:40.976Z,433.65
2023-01-21T15:01:40.903Z,425.44
2023-01-21T15:06:40.878Z,425.98
2023-01-21T15:11:40.793Z,420.93
2023-01-21T15:16:40.827Z,422.24
2023-01-21T15:21:40.666Z,424.10
2023-01-21T15:26:40.596Z,422.77
2023-01-21T15:31:40.591Z,421.45
2023-01-21T15:36:40.471Z,416.76
2023-01-21T15:41:40.395Z,417.80
2023-01-21T15:46:40.338Z,414.46
2023-01-21T15:51:40.297Z,414.46
2023-01-21T15:56:41.802Z,420.14
2023-01-21T16:01:40.185Z,418.58
2023-01-21T16:06:40.100Z,416.76
2023-01-21T16:11:40.006Z,415.74
2023-01-21T16:16:39.953Z,414.71
2023-01-21T16:21:39.894Z,412.94
2023-01-21T16:26:39.853Z,415.74
2023-01-21T16:31:43.161Z,414.20
2023-01-21T16:36:39.713Z,418.58
2023-01-21T16:41:39.644Z,421.19
2023-01-21T16:46:39.572Z,425.17
2023-01-21T16:51:39.508Z,428.69
2023-01-21T16:56:39.466Z,430.33
2023-01-21T17:01:39.526Z,433.65
2023-01-21T17:06:39.326Z,436.74
2023-01-21T17:11:39.251Z,438.73
2023-01-21T17:16:39.199Z,443.05
2023-01-21T17:21:39.119Z,449.85
2023-01-21T17:26:39.076Z,449.85
2023-01-21T17:31:39.068Z,457.79
2023-01-21T17:36:39.003Z,459.04
2023-01-21T17:41:38.860Z,464.09
2023-01-21T17:46:38.874Z,468.61
2023-01-21T17:51:38.738Z,472.55
2023-01-21T17:56:38.684Z,476.55
2023-01-21T18:01:38.756Z,475.88
2023-01-21T18:06:38.574Z,475.88
2023-01-21T18:11:38.481Z,476.89
2023-01-21T18:16:38.479Z,481.66
2023-01-21T18:21:38.362Z,481.66
2023-01-21T18:26:38.340Z,480.63
2023-01-21T18:31:38.335Z,492.57
2023-01-21T18:36:38.194Z,489.00
2023-01-21T18:41:38.120Z,492.21
2023-01-21T18:46:38.107Z,493.65
2023-01-21T18:51:37.991Z,489.35
2023-01-21T18:56:37.998Z,491.13
2023-01-21T19:01:38.009Z,487.58
2023-01-21T19:06:37.808Z,488.29
2023-01-21T19:11:37.718Z,491.85
2023-01-21T19:16:37.687Z,495.46
2023-01-21T19:21:37.615Z,498.76
2023-01-21T19:26:37.553Z,498.39
2023-01-21T19:31:37.561Z,491.85
2023-01-21T19:36:37.443Z,485.48
2023-01-21T19:41:37.325Z,481.66
2023-01-21T19:46:37.383Z,479.95
2023-01-21T19:51:37.231Z,474.21
2023-01-21T19:56:37.181Z,471.23
2023-01-21T20:01:39.017Z,471.23
2023-01-21T20:06:37.060Z,471.23
2023-01-21T20:11:36.957Z,478.58
2023-01-21T20:16:36.931Z,478.92
2023-01-21T20:21:40.216Z,471.56
2023-01-21T20:26:37.785Z,469.91
2023-01-21T20:31:36.743Z,475.55
2023-01-21T20:36:36.652Z,473.88
2023-01-21T20:41:36.598Z,475.55
2023-01-21T20:46:36.559Z,473.21
2023-01-21T20:51:36.467Z,474.21
2023-01-21T20:56:36.402Z,475.55
2023-01-21T21:01:36.381Z,473.21
2023-01-21T21:06:36.303Z,476.22
2023-01-21T21:11:36.239Z,472.22
2023-01-21T21:16:36.183Z,472.22
2023-01-21T21:21:36.092Z,469.59
2023-01-21T21:26:36.019Z,467.96
2023-01-21T21:31:35.957Z,466.34
2023-01-21T21:36:35.904Z,463.45
2023-01-21T21:41:35.843Z,462.50
2023-01-21T21:46:36.566Z,459.35
2023-01-21T21:51:35.699Z,461.87
2023-01-21T21:56:35.644Z,455.32
2023-01-21T22:01:35.667Z,451.36
2023-01-21T22:06:35.525Z,448.35
2023-01-21T22:11:35.475Z,446.87
2023-01-21T22:16:35.517Z,447.17
2023-01-21T22:21:35.349Z,449.55
2023-01-21T22:26:35.261Z,450.15
2023-01-21T22:31:35.347Z,452.87
2023-01-21T22:36:35.120Z,453.79
2023-01-21T22:41:35.089Z,455.93
2023-01-21T22:46:34.981Z,461.23
2023-01-21T22:51:34.936Z,459.35
2023-01-21T22:56:50.900Z,456.55
2023-01-21T23:01:35.894Z,455.01
2023-01-21T23:06:36.780Z,454.40
2023-01-21T23:11:34.670Z,454.70
2023-01-21T23:16:34.757Z,446.57
2023-01-21T23:21:34.597Z,449.85
2023-01-21T23:26:34.483Z,446.57
2023-01-21T23:31:34.503Z,449.25
2023-01-21T23:36:34.359Z,447.46
2023-01-21T23:41:34.310Z,444.80
2023-01-21T23:46:34.222Z,442.47
2023-01-21T23:51:34.216Z,442.18
2023-01-21T23:56:34.102Z,443.64
